Time;durP1;ratioP1;P1;durP2;ratioP2;P2;SDS_P1;SDS_P2;PMS_P1;PMS_P2;Temp;Humidity;BMP_temperature;BMP_pressure;BME280_temperature;BME280_humidity;BME280_pressure;Samples;Min_cycle;Max_cycle;Signal;HPM_P1;HPM_P2
2023/03/13 00:01:38;;;;;;;19.25;5.00;;;10.20;99.90;;;;;;4994554;28;20032;-84
2023/03/13 00:04:05;;;;;;;6.72;3.47;;;10.20;99.90;;;;;;5011220;28;20088;-84
2023/03/13 00:06:34;;;;;;;9.45;4.13;;;10.20;99.90;;;;;;5010810;28;20030;-83
2023/03/13 00:09:01;;;;;;;8.15;2.83;;;10.20;99.90;;;;;;4992782;28;20045;-83
2023/03/13 00:11:27;;;;;;;5.45;3.08;;;10.30;99.90;;;;;;4994368;28;20121;-84
2023/03/13 00:13:58;;;;;;;5.50;3.22;;;10.20;99.90;;;;;;4994705;28;20547;-83
2023/03/13 00:16:24;;;;;;;13.57;5.13;;;10.20;99.90;;;;;;5010287;28;20377;-84
2023/03/13 00:18:52;;;;;;;8.10;3.90;;;10.20;99.90;;;;;;4993594;28;20030;-84
2023/03/13 00:21:21;;;;;;;12.27;7.40;;;10.20;99.90;;;;;;5007961;28;20027;-83
2023/03/13 00:23:48;;;;;;;9.38;4.97;;;10.20;99.90;;;;;;4975095;28;20125;-83
2023/03/13 00:26:16;;;;;;;6.68;3.83;;;10.20;99.90;;;;;;4991195;28;20031;-83
2023/03/13 00:28:43;;;;;;;11.85;4.85;;;10.20;99.90;;;;;;4993869;28;20037;-84
2023/03/13 00:31:18;;;;;;;13.98;6.18;;;10.10;99.90;;;;;;5009805;28;20022;-83
2023/03/13 00:33:47;;;;;;;11.02;5.70;;;10.10;99.90;;;;;;5011212;28;20136;-84
2023/03/13 00:36:19;;;;;;;11.00;4.85;;;10.10;99.90;;;;;;5011048;28;20390;-83
2023/03/13 00:38:45;;;;;;;15.07;5.80;;;10.00;99.90;;;;;;4987711;28;20230;-83
2023/03/13 00:41:13;;;;;;;14.52;2.83;;;10.00;99.90;;;;;;5010095;28;20377;-83
2023/03/13 00:43:41;;;;;;;14.73;3.40;;;9.90;99.90;;;;;;4994480;28;20550;-84
2023/03/13 00:46:07;;;;;;;14.77;3.58;;;9.90;99.90;;;;;;5010490;28;20081;-83
2023/03/13 00:48:35;;;;;;;20.13;4.43;;;9.90;99.90;;;;;;4994169;28;20058;-83
2023/03/13 00:51:02;;;;;;;7.97;5.05;;;9.90;99.90;;;;;;5009373;28;20034;-83
2023/03/13 00:53:28;;;;;;;7.35;4.72;;;9.90;99.90;;;;;;4994223;28;20046;-83
2023/03/13 00:56:03;;;;;;;13.70;5.82;;;9.90;99.90;;;;;;4994331;28;20468;-83
2023/03/13 00:58:31;;;;;;;11.43;4.10;;;9.90;99.90;;;;;;4993846;28;20050;-84
2023/03/13 01:01:15;;;;;;;12.38;4.90;;;9.90;99.90;;;;;;5009295;28;20033;-83
2023/03/13 01:03:42;;;;;;;7.63;3.30;;;10.00;99.90;;;;;;4994088;28;20026;-83
2023/03/13 01:06:11;;;;;;;12.13;5.47;;;10.00;99.90;;;;;;5010891;28;20392;-83
2023/03/13 01:08:37;;;;;;;5.00;3.35;;;10.00;99.90;;;;;;4981797;28;20034;-83
2023/03/13 01:11:09;;;;;;;10.60;4.30;;;10.00;99.90;;;;;;5008853;28;20030;-82
2023/03/13 01:13:35;;;;;;;13.85;3.47;;;10.10;99.90;;;;;;5010522;28;20046;-83
2023/03/13 01:16:03;;;;;;;14.02;5.20;;;10.10;99.90;;;;;;4989724;28;20445;-82
2023/03/13 01:18:29;;;;;;;8.65;5.63;;;10.20;99.90;;;;;;5007017;28;20030;-83
2023/03/13 01:20:54;;;;;;;8.85;4.28;;;10.10;99.90;;;;;;5001166;28;20077;-83
2023/03/13 01:23:20;;;;;;;8.13;4.05;;;10.20;99.90;;;;;;4978571;28;20476;-83
2023/03/13 01:25:46;;;;;;;16.10;6.68;;;10.20;99.90;;;;;;4994623;28;20077;-84
2023/03/13 01:28:12;;;;;;;6.35;2.50;;;10.30;99.90;;;;;;4987941;28;20413;-82
2023/03/13 01:30:38;;;;;;;10.55;5.30;;;10.30;99.90;;;;;;4976380;28;20031;-83
2023/03/13 01:33:04;;;;;;;14.02;3.95;;;10.30;99.90;;;;;;4994143;28;20042;-83
2023/03/13 01:35:30;;;;;;;9.13;3.72;;;10.30;99.90;;;;;;4962286;28;20034;-83
2023/03/13 01:37:58;;;;;;;14.40;5.13;;;10.30;99.90;;;;;;5005438;28;20124;-83
2023/03/13 01:40:24;;;;;;;9.43;3.75;;;10.40;99.90;;;;;;4996495;28;20117;-83
2023/03/13 01:42:53;;;;;;;10.55;4.32;;;10.40;99.90;;;;;;4997528;28;20426;-83
2023/03/13 01:45:51;;;;;;;6.68;5.03;;;10.40;99.90;;;;;;4997040;28;20048;-83
2023/03/13 01:48:21;;;;;;;9.63;4.07;;;10.40;99.90;;;;;;5006866;28;20631;-83
2023/03/13 01:50:48;;;;;;;6.95;3.33;;;10.40;99.90;;;;;;5004912;28;20026;-83
2023/03/13 01:53:22;;;;;;;13.15;4.45;;;10.40;99.90;;;;;;4978628;28;20054;-83
2023/03/13 01:55:49;;;;;;;4.82;2.05;;;10.40;99.90;;;;;;4994118;28;20065;-83
2023/03/13 01:58:14;;;;;;;8.52;3.70;;;10.40;99.90;;;;;;4989931;28;20034;-82
2023/03/13 02:00:42;;;;;;;6.80;2.88;;;10.50;99.90;;;;;;5011919;28;20040;-83
2023/03/13 02:03:14;;;;;;;8.02;2.72;;;10.50;99.90;;;;;;4997354;28;20033;-83
2023/03/13 02:05:41;;;;;;;11.15;3.15;;;10.50;99.90;;;;;;5013403;28;20034;-83
2023/03/13 02:08:14;;;;;;;6.03;3.92;;;10.50;99.90;;;;;;4992975;28;20086;-84
2023/03/13 02:11:14;;;;;;;4.43;2.15;;;10.50;99.90;;;;;;4996353;28;20045;-83
2023/03/13 02:13:42;;;;;;;10.55;3.58;;;10.60;99.90;;;;;;4973697;28;20042;-85
2023/03/13 02:16:09;;;;;;;3.80;2.92;;;10.70;99.90;;;;;;4993148;28;20034;-84
2023/03/13 02:18:37;;;;;;;6.10;2.53;;;10.70;99.90;;;;;;4992474;28;20041;-83
2023/03/13 02:21:29;;;;;;;12.90;3.38;;;10.70;99.90;;;;;;5011612;28;20038;-84
2023/03/13 02:24:09;;;;;;;3.85;2.75;;;10.70;99.90;;;;;;5012901;28;20083;-83
2023/03/13 02:26:34;;;;;;;4.78;2.63;;;10.80;99.90;;;;;;4996723;28;20786;-83
2023/03/13 02:29:00;;;;;;;4.32;3.00;;;10.80;99.90;;;;;;4979064;28;20045;-83
2023/03/13 02:31:26;;;;;;;3.35;3.08;;;10.80;99.90;;;;;;4996782;28;20029;-83
2023/03/13 02:33:54;;;;;;;6.43;3.72;;;10.80;99.90;;;;;;5012895;28;20380;-83
2023/03/13 02:36:22;;;;;;;8.10;3.40;;;10.90;99.90;;;;;;4980182;28;20029;-83
2023/03/13 02:39:01;;;;;;;2.65;2.40;;;10.90;99.90;;;;;;5011938;28;20072;-85
2023/03/13 02:41:29;;;;;;;8.75;3.88;;;10.90;99.90;;;;;;4996043;28;20420;-83
2023/03/13 02:43:57;;;;;;;10.80;3.92;;;10.90;99.90;;;;;;4996648;28;20030;-83
2023/03/13 02:46:22;;;;;;;6.78;3.15;;;10.90;99.90;;;;;;5011901;28;20481;-83
2023/03/13 02:48:55;;;;;;;6.72;4.43;;;10.90;99.90;;;;;;5027714;28;20113;-83
2023/03/13 02:51:35;;;;;;;3.70;3.40;;;10.90;99.90;;;;;;4996074;28;20037;-84
2023/03/13 02:54:09;;;;;;;4.32;3.92;;;10.90;99.90;;;;;;5012342;28;20042;-83
2023/03/13 02:56:38;;;;;;;2.92;2.72;;;11.00;99.90;;;;;;5012563;28;20018;-83
2023/03/13 02:59:06;;;;;;;3.60;3.30;;;11.00;99.90;;;;;;4996850;28;20029;-83
2023/03/13 03:01:32;;;;;;;4.00;3.38;;;10.70;99.90;;;;;;4997389;28;20457;-83
2023/03/13 03:03:58;;;;;;;7.82;3.58;;;11.00;99.90;;;;;;5012141;28;20120;-82
2023/03/13 03:06:24;;;;;;;5.03;4.40;;;11.30;99.90;;;;;;4995457;28;20022;-83
2023/03/13 03:08:50;;;;;;;3.78;3.47;;;11.10;99.90;;;;;;4994489;28;20025;-84
2023/03/13 03:11:17;;;;;;;4.55;4.15;;;11.20;99.90;;;;;;5013496;28;20041;-83
2023/03/13 03:13:46;;;;;;;5.43;4.35;;;11.20;99.90;;;;;;4996105;28;20042;-83
2023/03/13 03:16:17;;;;;;;3.95;3.65;;;11.20;99.90;;;;;;4995586;28;20037;-83
2023/03/13 03:18:43;;;;;;;4.30;3.53;;;11.20;99.90;;;;;;5028332;28;20108;-83
2023/03/13 03:21:12;;;;;;;5.70;5.15;;;11.20;99.90;;;;;;4993923;28;20018;-82
2023/03/13 03:23:38;;;;;;;6.18;2.95;;;11.20;99.90;;;;;;4976643;28;20038;-83
2023/03/13 03:26:05;;;;;;;6.00;4.95;;;11.20;99.90;;;;;;4992219;28;20405;-84
2023/03/13 03:28:32;;;;;;;7.00;3.78;;;11.30;99.90;;;;;;4978862;28;20440;-83
2023/03/13 03:31:07;;;;;;;4.65;4.00;;;11.30;99.90;;;;;;5010311;28;20022;-84
2023/03/13 03:33:35;;;;;;;3.30;3.00;;;11.30;99.90;;;;;;5011779;28;20092;-83
2023/03/13 03:36:07;;;;;;;7.68;3.78;;;11.30;99.90;;;;;;5011834;28;20068;-82
2023/03/13 03:38:34;;;;;;;7.63;3.63;;;11.30;99.90;;;;;;4991592;28;20085;-84
2023/03/13 03:41:00;;;;;;;3.10;2.80;;;11.40;99.90;;;;;;4992183;28;20030;-83
2023/03/13 03:43:27;;;;;;;4.93;4.22;;;11.40;99.90;;;;;;4991238;28;20026;-83
2023/03/13 03:45:53;;;;;;;3.53;3.30;;;11.40;99.90;;;;;;4975519;28;20022;-83
2023/03/13 03:48:20;;;;;;;4.63;4.22;;;11.40;99.90;;;;;;4991864;28;20066;-83
2023/03/13 03:50:47;;;;;;;4.70;4.40;;;11.50;99.90;;;;;;4990625;28;20061;-83
2023/03/13 03:53:14;;;;;;;4.97;3.53;;;11.50;99.90;;;;;;5010937;28;20065;-83
2023/03/13 03:55:40;;;;;;;4.70;4.30;;;11.50;99.90;;;;;;4995007;28;20044;-83
2023/03/13 03:58:06;;;;;;;3.90;3.08;;;11.60;99.90;;;;;;5011204;28;20033;-83
2023/03/13 04:00:52;;;;;;;3.72;3.42;;;11.60;99.90;;;;;;5010131;28;20076;-83
2023/03/13 04:03:18;;;;;;;5.05;4.75;;;11.60;99.90;;;;;;5011295;28;20130;-84
2023/03/13 04:05:44;;;;;;;5.35;4.10;;;11.70;99.90;;;;;;4995231;28;20560;-84
2023/03/13 04:08:10;;;;;;;4.60;3.97;;;11.80;99.90;;;;;;4994824;28;20499;-84
2023/03/13 04:10:36;;;;;;;4.13;3.72;;;11.80;99.90;;;;;;4994137;28;20076;-84
2023/03/13 04:13:02;;;;;;;4.82;3.13;;;11.80;99.90;;;;;;4994240;28;20042;-83
2023/03/13 04:15:28;;;;;;;2.75;2.55;;;11.80;99.90;;;;;;4978382;28;20034;-84
2023/03/13 04:17:54;;;;;;;4.85;3.50;;;11.80;99.90;;;;;;5011312;28;20400;-83
2023/03/13 04:20:22;;;;;;;3.80;3.42;;;11.80;99.90;;;;;;4993697;28;20030;-85
2023/03/13 04:22:47;;;;;;;3.90;3.60;;;12.10;99.90;;;;;;4999411;28;20476;-84
2023/03/13 04:25:15;;;;;;;3.05;2.55;;;12.00;99.90;;;;;;5010998;28;20041;-84
2023/03/13 04:27:40;;;;;;;6.47;3.25;;;12.00;99.90;;;;;;5012251;28;20034;-83
2023/03/13 04:30:08;;;;;;;6.63;2.40;;;12.10;99.90;;;;;;4993082;28;20314;-84
2023/03/13 04:32:36;;;;;;;6.18;3.08;;;12.00;99.90;;;;;;5010925;28;20481;-84
2023/03/13 04:35:22;;;;;;;2.10;1.98;;;12.10;99.90;;;;;;4990972;28;20393;-83
2023/03/13 04:38:03;;;;;;;3.45;3.17;;;12.10;99.90;;;;;;5010960;28;20075;-84
2023/03/13 04:40:54;;;;;;;3.10;2.80;;;12.10;99.90;;;;;;5009493;28;20476;-83
2023/03/13 04:43:49;;;;;;;2.13;1.92;;;12.10;99.90;;;;;;5010666;28;20045;-82
2023/03/13 04:46:32;;;;;;;2.55;2.35;;;12.20;99.90;;;;;;4969041;28;20392;-83
2023/03/13 04:48:58;;;;;;;5.47;2.80;;;12.20;99.90;;;;;;5009265;28;20042;-83
2023/03/13 04:51:33;;;;;;;4.35;3.05;;;12.20;99.90;;;;;;5011161;28;20050;-84
2023/03/13 04:54:31;;;;;;;2.63;2.42;;;12.30;99.90;;;;;;4970821;28;20038;-83
2023/03/13 04:57:04;;;;;;;3.00;2.80;;;12.20;99.90;;;;;;4994742;28;20038;-83
2023/03/13 04:59:37;;;;;;;4.20;3.78;;;12.20;99.90;;;;;;4984722;28;20376;-83
2023/03/13 05:02:23;;;;;;;3.00;2.58;;;12.20;99.90;;;;;;5013890;28;20594;-84
2023/03/13 05:05:01;;;;;;;2.45;2.15;;;12.30;99.90;;;;;;4998410;28;20026;-83
2023/03/13 05:07:29;;;;;;;6.57;1.95;;;12.30;99.90;;;;;;5014587;28;20030;-84
2023/03/13 05:10:07;;;;;;;6.82;4.07;;;12.40;99.90;;;;;;4998315;28;20138;-83
2023/03/13 05:12:32;;;;;;;2.08;1.88;;;12.40;99.90;;;;;;5013977;28;20176;-84
2023/03/13 05:15:09;;;;;;;6.28;2.80;;;12.40;99.90;;;;;;4999810;28;20041;-83
2023/03/13 05:18:01;;;;;;;4.43;2.05;;;12.40;99.90;;;;;;5010652;28;20042;-83
2023/03/13 05:20:47;;;;;;;3.67;3.22;;;12.40;99.90;;;;;;5014003;28;20468;-83
2023/03/13 05:23:29;;;;;;;4.35;2.30;;;12.50;99.90;;;;;;5013574;28;20030;-84
2023/03/13 05:25:54;;;;;;;1.92;1.83;;;12.50;99.90;;;;;;5013928;28;20133;-84
2023/03/13 05:28:47;;;;;;;4.07;2.70;;;12.50;99.90;;;;;;5010124;28;20045;-83
2023/03/13 05:31:44;;;;;;;4.57;2.63;;;12.50;99.90;;;;;;4962195;28;20366;-84
2023/03/13 05:34:30;;;;;;;5.15;2.17;;;12.50;99.90;;;;;;5011226;28;20030;-84
2023/03/13 05:37:24;;;;;;;2.25;2.05;;;12.50;99.90;;;;;;5014048;28;20030;-85
2023/03/13 05:39:58;;;;;;;3.53;1.85;;;12.80;99.90;;;;;;4982541;28;20033;-84
2023/03/13 05:42:38;;;;;;;6.07;2.97;;;12.60;99.90;;;;;;4998884;28;20042;-84
2023/03/13 05:45:16;;;;;;;3.88;2.72;;;12.50;99.90;;;;;;5013144;28;20034;-84
2023/03/13 05:48:09;;;;;;;5.45;2.22;;;12.60;99.90;;;;;;5016157;28;20048;-81
2023/03/13 05:51:14;;;;;;;2.40;2.30;;;12.60;99.90;;;;;;4966747;28;20449;-82
2023/03/13 05:54:00;;;;;;;4.30;2.20;;;12.70;99.90;;;;;;4973850;28;20052;-85
2023/03/13 05:56:40;;;;;;;2.17;1.23;;;12.70;99.90;;;;;;4988945;28;20023;-85
2023/03/13 05:59:26;;;;;;;1.77;1.67;;;;;;;;;;4972088;28;20084;-83
2023/03/13 06:02:22;;;;;;;5.22;1.33;;;12.80;99.90;;;;;;5011004;28;20511;-85
2023/03/13 06:04:49;;;;;;;8.25;2.03;;;12.80;99.90;;;;;;4992497;28;20022;-83
2023/03/13 06:07:15;;;;;;;2.00;1.75;;;12.80;99.90;;;;;;5012508;28;20045;-86
2023/03/13 06:09:41;;;;;;;5.32;1.85;;;12.90;99.90;;;;;;4995278;28;20032;-82
2023/03/13 06:12:09;;;;;;;2.60;2.40;;;12.90;99.90;;;;;;4996524;28;20038;-83
2023/03/13 06:14:36;;;;;;;4.05;1.65;;;12.90;99.90;;;;;;4996257;28;20480;-84
2023/03/13 06:17:05;;;;;;;6.97;2.13;;;12.90;99.90;;;;;;5006002;28;20042;-83
2023/03/13 06:19:31;;;;;;;3.55;2.45;;;12.90;99.90;;;;;;4997853;28;20026;-82
2023/03/13 06:21:57;;;;;;;4.57;2.15;;;13.00;99.90;;;;;;5011915;28;20037;-82
2023/03/13 06:24:23;;;;;;;7.20;2.17;;;13.00;99.90;;;;;;4995593;28;20108;-82
2023/03/13 06:26:49;;;;;;;4.28;2.63;;;13.10;99.90;;;;;;5013418;28;20112;-81
2023/03/13 06:29:16;;;;;;;2.25;1.90;;;13.10;99.90;;;;;;4995083;28;20528;-83
2023/03/13 06:31:42;;;;;;;5.80;2.38;;;13.10;99.90;;;;;;5013244;28;20518;-83
2023/03/13 06:34:10;;;;;;;3.97;2.28;;;13.10;99.90;;;;;;4996438;28;20041;-83
2023/03/13 06:36:36;;;;;;;4.85;1.73;;;13.10;99.90;;;;;;4996318;28;20484;-83
2023/03/13 06:39:03;;;;;;;2.40;1.83;;;13.10;99.90;;;;;;4994894;28;20036;-84
2023/03/13 06:41:29;;;;;;;3.22;1.65;;;13.10;99.90;;;;;;4994831;28;20022;-84
2023/03/13 06:43:54;;;;;;;4.68;4.20;;;13.10;99.90;;;;;;5014297;28;20034;-83
2023/03/13 06:46:23;;;;;;;7.05;3.90;;;13.00;99.90;;;;;;4995782;28;20161;-82
2023/03/13 06:48:49;;;;;;;7.45;5.18;;;13.10;99.90;;;;;;5014049;28;20065;-82
2023/03/13 06:51:18;;;;;;;3.83;3.53;;;13.20;99.90;;;;;;5012327;28;20076;-83
2023/03/13 06:53:44;;;;;;;9.80;5.35;;;13.10;99.90;;;;;;4995674;28;20455;-83
2023/03/13 06:56:10;;;;;;;3.47;2.65;;;13.20;99.90;;;;;;4995607;28;20048;-82
2023/03/13 06:58:36;;;;;;;8.50;3.45;;;13.30;99.90;;;;;;5012685;28;20109;-82
2023/03/13 07:01:09;;;;;;;10.68;3.83;;;13.30;99.90;;;;;;4993812;28;20065;-82
2023/03/13 07:03:36;;;;;;;5.70;3.08;;;13.20;99.90;;;;;;4994835;28;20698;-82
2023/03/13 07:06:03;;;;;;;2.28;2.08;;;13.40;99.90;;;;;;5012942;28;20084;-81
2023/03/13 07:08:29;;;;;;;6.03;2.58;;;13.20;99.90;;;;;;4997187;28;20060;-82
2023/03/13 07:11:00;;;;;;;8.20;2.72;;;13.30;99.90;;;;;;5010776;28;20057;-83
2023/03/13 07:13:26;;;;;;;7.75;2.08;;;13.20;99.90;;;;;;5011280;28;20092;-82
2023/03/13 07:15:52;;;;;;;7.13;3.33;;;13.20;99.90;;;;;;4977007;28;20480;-81
2023/03/13 07:18:19;;;;;;;5.65;1.70;;;13.20;99.90;;;;;;4994279;28;20056;-84
2023/03/13 07:20:54;;;;;;;9.48;2.55;;;13.30;99.90;;;;;;5010340;28;20481;-83
2023/03/13 07:23:21;;;;;;;1.98;1.45;;;13.30;99.90;;;;;;5025931;28;20420;-82
2023/03/13 07:25:58;;;;;;;6.43;3.08;;;13.30;99.90;;;;;;5011519;28;20050;-84
2023/03/13 07:28:24;;;;;;;4.00;2.17;;;13.30;99.90;;;;;;5008228;28;20034;-81
2023/03/13 07:30:50;;;;;;;7.25;3.33;;;13.40;99.90;;;;;;4993816;28;20026;-82
2023/03/13 07:33:17;;;;;;;5.03;2.33;;;13.40;99.90;;;;;;5010887;28;20488;-82
2023/03/13 07:35:50;;;;;;;14.20;8.00;;;13.40;99.90;;;;;;5026845;28;20030;-80
2023/03/13 07:38:17;;;;;;;53.92;29.73;;;13.40;99.90;;;;;;5008291;28;20432;-81
2023/03/13 07:40:50;;;;;;;24.10;15.02;;;13.40;99.90;;;;;;5010473;28;20018;-85
2023/03/13 07:43:17;;;;;;;16.90;10.70;;;13.40;99.90;;;;;;5008454;28;20025;-82
2023/03/13 07:45:50;;;;;;;8.50;5.28;;;13.40;99.90;;;;;;4992170;28;20021;-82
2023/03/13 07:48:17;;;;;;;12.73;7.95;;;13.50;99.90;;;;;;4983745;28;20369;-82
2023/03/13 07:50:42;;;;;;;15.23;9.68;;;13.60;99.90;;;;;;4997651;28;20034;-86
2023/03/13 07:53:08;;;;;;;14.93;8.52;;;13.60;99.90;;;;;;4991343;28;20081;-86
2023/03/13 07:55:34;;;;;;;12.52;4.95;;;13.60;99.90;;;;;;4978766;28;20476;-82
2023/03/13 07:58:00;;;;;;;5.85;4.38;;;;;;;;;;5012079;28;20028;-81
2023/03/13 08:00:26;;;;;;;6.72;3.70;;;13.50;99.90;;;;;;4995153;28;20038;-83
2023/03/13 08:02:52;;;;;;;8.20;4.45;;;13.50;99.90;;;;;;5008257;28;20044;-83
2023/03/13 08:05:18;;;;;;;6.28;3.17;;;13.40;99.90;;;;;;4988893;28;20041;-82
2023/03/13 08:07:44;;;;;;;5.28;2.67;;;13.40;99.90;;;;;;4994397;28;20018;-83
2023/03/13 08:10:10;;;;;;;3.60;3.00;;;13.50;99.90;;;;;;5009998;28;20037;-82
2023/03/13 08:12:36;;;;;;;7.03;4.85;;;13.70;99.90;;;;;;4993713;28;20046;-82
2023/03/13 08:15:02;;;;;;;7.57;3.70;;;13.90;99.90;;;;;;5011117;28;20026;-81
2023/03/13 08:17:31;;;;;;;8.38;5.18;;;14.10;99.90;;;;;;4993951;28;20045;-81
2023/03/13 08:19:57;;;;;;;5.65;3.20;;;14.30;99.90;;;;;;4992125;28;20041;-82
2023/03/13 08:22:23;;;;;;;6.50;2.58;;;15.60;99.90;;;;;;5007584;28;20075;-82
2023/03/13 08:24:48;;;;;;;7.63;2.83;;;15.50;99.90;;;;;;4954313;28;20125;-81
2023/03/13 08:27:14;;;;;;;2.40;2.20;;;15.60;99.90;;;;;;4990025;28;20110;-82
2023/03/13 08:29:40;;;;;;;5.88;2.95;;;15.30;99.90;;;;;;4980449;28;20015;-82
2023/03/13 08:32:06;;;;;;;7.88;3.72;;;15.20;99.90;;;;;;4978581;28;20548;-81
2023/03/13 08:34:33;;;;;;;2.30;1.75;;;15.10;99.90;;;;;;4979050;28;20034;-80
2023/03/13 08:37:00;;;;;;;15.63;3.85;;;16.20;99.90;;;;;;4994999;28;20449;-83
2023/03/13 08:39:26;;;;;;;10.20;2.58;;;16.40;99.90;;;;;;4998102;28;20013;-82
2023/03/13 08:41:52;;;;;;;3.67;2.92;;;16.40;99.90;;;;;;5014909;28;20101;-82
2023/03/13 08:44:19;;;;;;;8.88;3.72;;;17.10;99.90;;;;;;5014070;28;20122;-82
2023/03/13 08:46:45;;;;;;;5.40;2.72;;;18.20;99.90;;;;;;4981703;28;20030;-82
2023/03/13 08:49:12;;;;;;;4.80;2.47;;;18.00;99.90;;;;;;5013023;28;20032;-82
2023/03/13 08:51:39;;;;;;;4.10;1.23;;;18.00;99.90;;;;;;5013245;28;20080;-82
2023/03/13 08:54:05;;;;;;;4.57;2.45;;;20.00;99.90;;;;;;5015249;28;20050;-81
2023/03/13 08:56:32;;;;;;;4.47;2.25;;;22.30;99.90;;;;;;4981722;28;20066;-82
2023/03/13 08:59:01;;;;;;;3.28;2.45;;;20.10;99.90;;;;;;5012810;28;20136;-82
2023/03/13 09:01:32;;;;;;;1.95;1.73;;;18.70;99.90;;;;;;4997077;28;20136;-81
2023/03/13 09:03:59;;;;;;;6.97;3.38;;;19.10;99.90;;;;;;4989838;28;20099;-85
2023/03/13 09:06:25;;;;;;;1.33;1.23;;;18.40;99.90;;;;;;4965486;28;20034;-82
2023/03/13 09:08:51;;;;;;;2.85;1.25;;;18.00;99.90;;;;;;5015283;28;20029;-82
2023/03/13 09:11:20;;;;;;;2.95;1.20;;;17.60;99.90;;;;;;4996503;28;20026;-81
2023/03/13 09:13:48;;;;;;;1.47;1.37;;;17.30;99.90;;;;;;5006243;28;20042;-82
2023/03/13 09:16:16;;;;;;;2.65;1.67;;;17.30;99.90;;;;;;5007112;28;20052;-82
2023/03/13 09:18:43;;;;;;;2.45;1.63;;;18.00;99.90;;;;;;4997875;28;20072;-81
2023/03/13 09:21:12;;;;;;;3.33;1.42;;;18.10;99.90;;;;;;4994274;28;20034;-84
2023/03/13 09:23:38;;;;;;;1.75;1.55;;;18.10;99.90;;;;;;5013882;28;20081;-82
2023/03/13 09:26:04;;;;;;;2.65;1.98;;;17.40;99.90;;;;;;4997288;28;20488;-82
2023/03/13 09:28:31;;;;;;;4.03;1.70;;;16.90;99.90;;;;;;5030467;28;20124;-82
2023/03/13 09:31:07;;;;;;;4.10;2.03;;;16.60;99.90;;;;;;5013082;28;20030;-82
2023/03/13 09:33:33;;;;;;;1.50;1.13;;;17.00;99.90;;;;;;5013767;28;20428;-81
2023/03/13 09:35:59;;;;;;;0.88;0.77;;;16.90;99.90;;;;;;5009118;28;20544;-83
2023/03/13 09:38:24;;;;;;;4.07;1.75;;;17.50;99.90;;;;;;5013043;28;20077;-81
2023/03/13 09:40:53;;;;;;;2.67;2.47;;;17.20;99.90;;;;;;5007756;28;20028;-84
2023/03/13 09:43:31;;;;;;;3.75;1.17;;;17.00;99.90;;;;;;5008139;28;20473;-82
2023/03/13 09:46:01;;;;;;;2.85;1.60;;;17.20;99.90;;;;;;4992344;28;20034;-81
2023/03/13 09:48:40;;;;;;;4.07;1.33;;;17.00;99.90;;;;;;4993672;28;20030;-83
2023/03/13 09:51:24;;;;;;;3.95;1.73;;;16.60;99.90;;;;;;5010267;28;20038;-82
2023/03/13 09:54:06;;;;;;;1.25;1.15;;;16.40;99.90;;;;;;5009884;28;20053;-81
2023/03/13 09:56:46;;;;;;;2.78;1.75;;;16.20;99.90;;;;;;5012919;28;20056;-82
2023/03/13 09:59:23;;;;;;;;;;;16.30;99.90;;;;;;5012885;28;24138;-83
2023/03/13 10:01:50;;;;;;;4.85;1.38;;;16.60;99.90;;;;;;4997036;28;20398;-83
2023/03/13 10:04:27;;;;;;;1.83;0.88;;;17.30;99.90;;;;;;4996304;28;20026;-81
2023/03/13 10:06:53;;;;;;;2.53;1.05;;;17.50;99.90;;;;;;4996662;28;20477;-81
2023/03/13 10:09:39;;;;;;;2.72;1.45;;;17.10;99.90;;;;;;4980027;28;20022;-82
2023/03/13 10:12:10;;;;;;;1.42;1.38;;;17.00;99.90;;;;;;4996531;28;20411;-81
2023/03/13 10:15:02;;;;;;;1.35;0.65;;;17.00;99.90;;;;;;5013121;28;20026;-82
2023/03/13 10:17:35;;;;;;;4.95;1.27;;;17.70;99.90;;;;;;4996455;28;20088;-81
2023/03/13 10:20:10;;;;;;;2.65;1.10;;;18.30;99.90;;;;;;4994709;28;20105;-81
2023/03/13 10:22:36;;;;;;;2.05;1.27;;;18.00;99.90;;;;;;5011546;28;20092;-81
2023/03/13 10:25:10;;;;;;;14.93;4.75;;;18.20;99.90;;;;;;5028773;28;20033;-81
2023/03/13 10:27:50;;;;;;;10.25;8.63;;;18.30;99.90;;;;;;5012859;28;20044;-82
2023/03/13 10:30:28;;;;;;;3.67;3.42;;;19.30;99.90;;;;;;5010628;28;20037;-82
2023/03/13 10:32:59;;;;;;;5.68;4.65;;;19.10;99.90;;;;;;4995717;28;20040;-82
2023/03/13 10:35:36;;;;;;;8.88;5.95;;;19.20;99.90;;;;;;5012053;28;20033;-82
2023/03/13 10:38:14;;;;;;;4.45;3.33;;;18.70;99.90;;;;;;5012320;28;20061;-81
2023/03/13 10:40:41;;;;;;;8.88;5.90;;;18.30;99.90;;;;;;5011303;28;20496;-81
2023/03/13 10:43:19;;;;;;;2.85;1.60;;;18.30;99.90;;;;;;4996618;28;20026;-83
2023/03/13 10:45:45;;;;;;;4.18;1.52;;;18.50;99.90;;;;;;4995126;28;20124;-82
2023/03/13 10:48:19;;;;;;;8.05;3.03;;;18.50;99.90;;;;;;4995643;28;20091;-85
2023/03/13 10:50:47;;;;;;;10.43;8.80;;;18.30;99.90;;;;;;4994752;28;20038;-81
2023/03/13 10:53:22;;;;;;;6.65;5.13;;;18.30;99.90;;;;;;4979308;28;20046;-82
2023/03/13 10:55:50;;;;;;;4.40;4.00;;;18.70;99.90;;;;;;4993364;28;20122;-82
2023/03/13 10:58:29;;;;;;;2.63;2.45;;;18.50;99.90;;;;;;4993258;28;20117;-82
2023/03/13 11:01:14;;;;;;;1.13;1.08;;;18.10;99.90;;;;;;4975538;28;20026;-81
2023/03/13 11:03:40;;;;;;;1.13;1.02;;;17.80;99.90;;;;;;4976713;28;20378;-82
2023/03/13 11:06:06;;;;;;;3.03;1.30;;;17.40;99.90;;;;;;5009564;28;20464;-83
2023/03/13 11:08:36;;;;;;;1.00;0.82;;;17.30;99.90;;;;;;4995119;28;20104;-81
2023/03/13 11:11:04;;;;;;;1.55;0.93;;;17.10;99.90;;;;;;4994268;28;20077;-82
2023/03/13 11:13:41;;;;;;;2.15;0.85;;;16.90;99.90;;;;;;4995541;28;20038;-83
2023/03/13 11:16:25;;;;;;;2.00;0.90;;;16.90;99.90;;;;;;5011792;28;20495;-83
2023/03/13 11:19:29;;;;;;;0.50;0.50;;;16.80;99.90;;;;;;4995756;28;20117;-81
2023/03/13 11:22:14;;;;;;;3.90;1.50;;;16.80;99.90;;;;;;4976687;28;20034;-82
2023/03/13 11:24:58;;;;;;;2.55;1.48;;;16.90;99.90;;;;;;4991659;28;20038;-82
2023/03/13 11:28:11;;;;;;;0.50;0.50;;;16.90;99.90;;;;;;5004375;28;20144;-81
2023/03/13 11:30:57;;;;;;;2.97;1.10;;;17.00;99.90;;;;;;4940462;29;20032;-82
2023/03/13 11:33:56;;;;;;;1.05;1.05;;;17.20;99.90;;;;;;4995310;28;20069;-82
2023/03/13 11:36:43;;;;;;;1.67;1.08;;;17.30;99.90;;;;;;5006236;28;20180;-83
2023/03/13 11:39:34;;;;;;;0.80;0.80;;;17.20;99.90;;;;;;4993906;28;20065;-82
2023/03/13 11:42:22;;;;;;;1.45;1.25;;;17.20;99.90;;;;;;5011485;28;20033;-81
2023/03/13 11:45:09;;;;;;;4.50;3.20;;;17.30;99.90;;;;;;4993240;28;20065;-83
2023/03/13 11:47:38;;;;;;;3.47;2.10;;;17.30;99.90;;;;;;5012220;28;20057;-84
2023/03/13 11:50:04;;;;;;;2.88;1.88;;;17.60;99.90;;;;;;4994175;28;20030;-82
2023/03/13 11:53:10;;;;;;;2.38;1.23;;;17.70;99.90;;;;;;5010400;28;20037;-82
2023/03/13 11:55:57;;;;;;;1.23;1.02;;;17.80;99.90;;;;;;4938699;28;20065;-82
2023/03/13 11:58:33;;;;;;;0.80;0.73;;;18.00;99.90;;;;;;4992090;28;20037;-83
2023/03/13 12:01:04;;;;;;;2.17;1.17;;;18.50;99.90;;;;;;4993033;28;20045;-83
2023/03/13 12:03:58;;;;;;;1.17;1.05;;;18.60;99.90;;;;;;5010618;28;20117;-83
2023/03/13 12:06:49;;;;;;;1.55;1.13;;;18.90;99.90;;;;;;5010234;28;20033;-82
2023/03/13 12:09:19;;;;;;;0.65;0.65;;;18.90;99.90;;;;;;5010118;28;20040;-81
2023/03/13 12:12:04;;;;;;;2.80;1.30;;;18.40;99.90;;;;;;5010818;28;20034;-82
2023/03/13 12:15:02;;;;;;;0.52;0.52;;;18.30;99.90;;;;;;4994685;28;20070;-82
2023/03/13 12:17:33;;;;;;;1.92;0.90;;;18.60;99.90;;;;;;4978977;28;20124;-81
2023/03/13 12:20:08;;;;;;;0.43;0.43;;;18.80;99.90;;;;;;4988991;28;20116;-80
2023/03/13 12:23:03;;;;;;;0.77;0.70;;;19.00;99.90;;;;;;5010459;28;20069;-81
2023/03/13 12:25:53;;;;;;;0.50;0.47;;;18.50;99.90;;;;;;4976648;28;20069;-81
2023/03/13 12:28:38;;;;;;;1.10;1.00;;;18.10;99.90;;;;;;5009180;28;20053;-81
2023/03/13 12:31:24;;;;;;;1.10;0.52;;;17.90;99.90;;;;;;4992736;28;20065;-81
2023/03/13 12:33:59;;;;;;;4.68;1.80;;;17.90;99.90;;;;;;5010403;28;20049;-82
2023/03/13 12:36:45;;;;;;;0.90;0.90;;;18.20;99.90;;;;;;5010404;28;20392;-81
2023/03/13 12:39:36;;;;;;;1.42;1.15;;;18.00;99.90;;;;;;5009306;28;20117;-81
2023/03/13 12:42:24;;;;;;;1.25;1.20;;;18.00;99.90;;;;;;4993799;28;20034;-82
2023/03/13 12:44:50;;;;;;;1.05;0.93;;;18.20;99.90;;;;;;4974733;28;20055;-80
2023/03/13 12:47:32;;;;;;;0.50;0.50;;;18.30;99.90;;;;;;4988765;28;20378;-85
2023/03/13 12:50:18;;;;;;;0.50;0.50;;;18.00;99.90;;;;;;5009177;28;20372;-82
2023/03/13 12:53:18;;;;;;;1.33;0.82;;;17.80;99.90;;;;;;5010412;28;20037;-82
2023/03/13 12:56:03;;;;;;;6.45;1.15;;;17.80;99.90;;;;;;5010015;28;20057;-81
2023/03/13 12:58:37;;;;;;;2.25;0.90;;;17.70;99.90;;;;;;4989600;28;20489;-82
2023/03/13 13:01:06;;;;;;;0.63;0.63;;;18.10;99.90;;;;;;4989951;28;20366;-82
2023/03/13 13:03:35;;;;;;;4.65;1.23;;;18.20;99.90;;;;;;5025593;28;20022;-82
2023/03/13 13:06:15;;;;;;;0.85;0.80;;;18.30;99.90;;;;;;5009541;28;20408;-82
2023/03/13 13:08:43;;;;;;;;;;;18.30;99.90;;;;;;5007720;28;20392;-84
2023/03/13 13:11:42;;;;;;;3.72;0.65;;;18.50;99.90;;;;;;4991370;28;19913;-83
2023/03/13 13:14:17;;;;;;;0.57;0.52;;;18.30;99.90;;;;;;4991828;28;20041;-83
2023/03/13 13:16:58;;;;;;;3.35;1.02;;;18.40;99.90;;;;;;4994113;28;20353;-84